createdAt,value
2022-08-05T00:13:06.709Z,58.00
2022-08-05T00:28:21.139Z,58.00
2022-08-05T00:43:31.543Z,58.00
2022-08-05T00:58:48.920Z,58.10
2022-08-05T01:13:57.983Z,58.10
2022-08-05T01:29:04.257Z,58.10
2022-08-05T01:44:09.950Z,58.20
2022-08-05T01:59:12.757Z,58.20
2022-08-05T02:14:17.046Z,58.10
2022-08-05T02:29:21.558Z,58.20
2022-08-05T02:44:25.848Z,58.30
2022-08-05T02:59:27.777Z,58.40
2022-08-05T03:14:29.354Z,58.40
2022-08-05T03:29:45.551Z,58.40
2022-08-05T03:44:53.621Z,58.40
2022-08-05T03:59:55.473Z,58.50
2022-08-05T04:14:57.566Z,58.50
2022-08-05T04:30:00.002Z,58.50
2022-08-05T04:45:05.559Z,58.60
2022-08-05T05:00:07.265Z,58.50
2022-08-05T05:15:10.828Z,58.60
2022-08-05T05:30:28.808Z,58.60
2022-08-05T05:45:31.596Z,58.70
2022-08-05T06:00:34.302Z,58.70
2022-08-05T06:16:30.435Z,58.80
2022-08-05T06:30:58.834Z,58.70
2022-08-05T06:46:06.809Z,58.70
2022-08-05T07:01:08.883Z,59.00
2022-08-05T07:17:56.321Z,59.20
2022-08-05T07:31:41.083Z,59.10
2022-08-05T07:46:56.297Z,59.30
2022-08-05T08:01:58.089Z,59.40
2022-08-05T08:16:59.655Z,59.70
2022-08-05T08:32:01.155Z,59.40
2022-08-05T08:47:02.643Z,59.10
2022-08-05T09:02:04.206Z,58.70
2022-08-05T09:17:08.171Z,58.20
2022-08-05T09:32:42.205Z,57.70
2022-08-05T09:47:36.470Z,57.60
2022-08-05T10:02:50.732Z,56.30
2022-08-05T10:17:56.761Z,55.70
2022-08-05T10:33:02.100Z,55.70
2022-08-05T10:48:30.693Z,55.00
2022-08-05T11:03:27.065Z,54.10
2022-08-05T11:18:30.037Z,53.00
2022-08-05T11:33:34.741Z,51.50
2022-08-05T11:48:47.651Z,50.40
2022-08-05T12:03:55.997Z,49.20
2022-08-05T12:18:57.797Z,47.30
2022-08-05T12:33:59.296Z,46.30
2022-08-05T12:49:05.726Z,45.40
2022-08-05T13:04:19.114Z,44.50
2022-08-05T13:19:22.429Z,43.60
2022-08-05T13:34:26.220Z,42.70
2022-08-05T13:49:27.883Z,42.20
2022-08-05T14:04:29.364Z,42.40
2022-08-05T14:19:33.371Z,42.10
2022-08-05T14:34:56.978Z,42.10
2022-08-05T14:50:03.146Z,41.60
2022-08-05T15:05:13.522Z,41.50
2022-08-05T15:20:19.055Z,41.30
2022-08-05T15:35:21.868Z,40.90
2022-08-05T15:50:25.195Z,40.30
2022-08-05T16:05:28.145Z,40.10
2022-08-05T16:20:30.082Z,40.50
2022-08-05T16:35:42.041Z,40.40
2022-08-05T16:50:44.271Z,40.00
2022-08-05T17:05:48.974Z,40.00
2022-08-05T17:20:54.969Z,40.10
2022-08-05T17:36:07.424Z,41.50
2022-08-05T17:51:12.578Z,41.60
2022-08-05T18:06:15.386Z,41.20
2022-08-05T18:21:20.000Z,40.70
2022-08-05T18:36:28.000Z,41.20
2022-08-05T18:52:04.500Z,41.40
2022-08-05T19:06:51.337Z,41.40
2022-08-05T19:21:54.972Z,41.50
2022-08-05T19:36:56.453Z,41.80
2022-08-05T19:52:08.646Z,42.10
2022-08-05T20:07:47.879Z,42.40
2022-08-05T20:22:41.508Z,42.60
2022-08-05T20:38:08.080Z,42.90
2022-08-05T20:53:07.298Z,43.20
2022-08-05T21:08:17.894Z,43.30
2022-08-05T21:23:19.391Z,43.60
2022-08-05T21:38:23.999Z,43.90
2022-08-05T21:53:27.650Z,44.20
2022-08-05T22:08:29.428Z,44.50
2022-08-05T22:24:01.854Z,44.60
2022-08-05T22:38:55.563Z,44.90
2022-08-05T22:53:57.160Z,45.00
2022-08-05T23:09:27.212Z,45.10
2022-08-05T23:24:20.127Z,45.30
2022-08-05T23:39:32.039Z,45.40
2022-08-05T23:54:45.418Z,45.50
